Terminal Aerodrome Forecast
Issued by NWS

Home | Current Version | Previous Version | Text Only | Print | Product List | Glossary On
Versions: 1 2 3 4 5 6 7 8 9 10 11 12 13 14 15 16 17 18 19 20 21 22
000
FTUS45 KABQ 211700
TAFLVS
TAF
KLVS 211732Z 2118/2218 08010KT P6SM BKN035
     FM212100 10012KT P6SM VCSH SCT035 BKN050
      TEMPO 2122/2202 VRB15G25KT 4SM -TSRA OVC030CB
     FM220400 12008KT P6SM VCSH BKN025
     FM220900 16008KT 5SM -RA BR SCT009 BKN015=

USA.gov is the U.S. government's official web portal to all federal, state and local government web resources and services.